Redwood Falls, Minnesota
Current Conditions -  °F | °C
As of 1:53 PM on Monday 24 Nov 2014 (Local Time) from KRWF Reporting Station
Light Snow Light Snow  
Wind Chill: -3°   Ceiling: 1800
Heat Index: 14°   Visibility: 3mi
Dew Point:   Wind: 20mph
Humidity: 74%   Direction: 320°NW
Pressure: 29.67"   Gusts: 36mph
Location:  44.54°N, 95.12°W
Report Text: KRWF 241953Z AUTO 32017G31KT 3SM -SN OVC018 M10/M14 A2967 RMK AO2 PK WND 31035/1859 SLP063 P0000 T11001139
Loading
Personal Weather Stations






























Interactive Weather Map New forecast layout! Learn more

10-Day Weather Forecast

Advertisements
Track Severe Weather on mobile